Аэропорт: Кемерово. Кемерово

ICAO: UNEE

METAR:
2022-06-26 10:30:00
UNEE 261030Z 16006MPS 9999 FEW040 29/18 Q0996 R23/CLRD60 NOSIG RMK QFE724
METAR:
2022-06-26 08:00:00
TAF UNEE 260800Z 2609/2709 18006G13MPS 8000 BKN040CB TEMPO 2609/2615 14007G15MPS -TSRA BKN016CB BECMG 2615/2617 24003G08MPS BECMG 2701/2703 19006G13MPS TEMPO 2703/2709 23007G15MPS -TSRA BKN016CB